Time;durP1;ratioP1;P1;durP2;ratioP2;P2;SDS_P1;SDS_P2;PMS_P1;PMS_P2;Temp;Humidity;BMP_temperature;BMP_pressure;BME280_temperature;BME280_humidity;BME280_pressure;Samples;Min_cycle;Max_cycle;Signal;HPM_P1;HPM_P2
2022/09/20 00:01:13;;;;;;;3.43;1.00;;;15.10;99.90;;;;;;5073852;28;20602;-78
2022/09/20 00:03:41;;;;;;;4.20;1.00;;;15.10;99.90;;;;;;5076056;28;20578;-78
2022/09/20 00:06:11;;;;;;;3.00;1.10;;;15.10;99.90;;;;;;5078894;28;20558;-78
2022/09/20 00:08:37;;;;;;;7.37;1.40;;;15.00;99.90;;;;;;5073854;28;20570;-78
2022/09/20 00:11:13;;;;;;;2.43;1.13;;;15.00;99.90;;;;;;5074551;28;20983;-78
2022/09/20 00:13:39;;;;;;;2.70;0.90;;;14.90;99.90;;;;;;5075031;28;20672;-78
2022/09/20 00:16:09;;;;;;;5.03;1.10;;;14.80;99.90;;;;;;5074772;28;20941;-78
2022/09/20 00:18:35;;;;;;;8.03;1.23;;;14.80;99.90;;;;;;5056937;28;20618;-77
2022/09/20 00:21:01;;;;;;;3.57;0.90;;;14.80;99.90;;;;;;5074444;28;20992;-78
2022/09/20 00:23:26;;;;;;;7.00;1.10;;;14.70;99.90;;;;;;5073590;28;20570;-78
2022/09/20 00:26:12;;;;;;;4.10;1.27;;;14.70;99.90;;;;;;5073548;28;20493;-78
2022/09/20 00:28:39;;;;;;;2.90;0.90;;;14.70;99.90;;;;;;5074923;28;20183;-79
2022/09/20 00:31:05;;;;;;;3.80;1.00;;;14.60;99.90;;;;;;5074215;28;20677;-78
2022/09/20 00:36:15;;;;;;;2.40;0.97;;;14.60;99.90;;;;;;5074603;28;20565;-78
2022/09/20 00:38:41;;;;;;;1.83;0.90;;;14.60;99.90;;;;;;5074297;28;20610;-78
2022/09/20 00:41:07;;;;;;;3.93;1.20;;;14.60;99.90;;;;;;5074542;28;20668;-78
2022/09/20 00:43:42;;;;;;;3.13;1.00;;;14.60;99.90;;;;;;5078019;28;20605;-78
2022/09/20 00:46:23;;;;;;;4.77;0.90;;;14.60;99.90;;;;;;5074298;28;20562;-78
2022/09/20 00:48:53;;;;;;;4.60;1.07;;;14.60;99.90;;;;;;5074173;28;20562;-78
2022/09/20 00:51:28;;;;;;;2.93;1.10;;;14.70;99.90;;;;;;5073855;28;20693;-78
2022/09/20 00:53:58;;;;;;;4.63;1.30;;;14.70;99.90;;;;;;5074134;28;20570;-78
2022/09/20 00:56:30;;;;;;;2.93;1.07;;;14.70;99.90;;;;;;5072845;28;20570;-78
2022/09/20 00:59:20;;;;;;;2.77;0.80;;;14.80;99.90;;;;;;5074155;28;20657;-78
2022/09/20 01:02:01;;;;;;;3.60;1.23;;;14.80;99.90;;;;;;5073569;28;20594;-78
2022/09/20 01:04:28;;;;;;;4.67;1.60;;;14.80;99.90;;;;;;5072863;28;20582;-78
2022/09/20 01:07:01;;;;;;;2.47;1.00;;;14.80;99.90;;;;;;5073955;28;20606;-78
2022/09/20 01:09:27;;;;;;;4.60;1.40;;;14.80;99.90;;;;;;5072444;28;20627;-78
2022/09/20 01:11:55;;;;;;;4.23;1.00;;;14.90;99.90;;;;;;5073519;28;20653;-78
2022/09/20 01:14:24;;;;;;;4.80;1.83;;;14.90;99.90;;;;;;5072524;28;20240;-78
2022/09/20 01:16:53;;;;;;;3.00;1.00;;;14.90;99.90;;;;;;5055961;28;20578;-78
2022/09/20 01:19:29;;;;;;;3.40;0.97;;;14.90;99.90;;;;;;5072465;28;20661;-78
2022/09/20 01:21:55;;;;;;;3.80;1.20;;;14.90;99.90;;;;;;5060875;28;20586;-78
2022/09/20 01:24:25;;;;;;;4.07;1.20;;;14.90;99.90;;;;;;5073826;28;20589;-79
2022/09/20 01:27:10;;;;;;;2.57;1.10;;;14.90;99.90;;;;;;5073750;28;20169;-78
2022/09/20 01:29:58;;;;;;;2.27;1.10;;;15.00;99.90;;;;;;5073208;28;20575;-78
2022/09/20 01:32:33;;;;;;;5.43;1.50;;;14.90;99.90;;;;;;5073263;28;20684;-78
2022/09/20 01:35:00;;;;;;;3.43;1.50;;;15.00;99.90;;;;;;5073646;28;20561;-78
2022/09/20 01:37:34;;;;;;;5.17;1.10;;;15.00;99.90;;;;;;5038974;28;20619;-78
2022/09/20 01:40:09;;;;;;;2.33;1.10;;;15.00;99.90;;;;;;5073254;28;20563;-77
2022/09/20 01:42:48;;;;;;;4.03;1.23;;;15.00;99.90;;;;;;5073225;28;20600;-77
2022/09/20 01:45:17;;;;;;;3.13;1.63;;;15.10;99.90;;;;;;5073312;28;20958;-78
2022/09/20 01:47:58;;;;;;;4.17;2.17;;;15.10;99.90;;;;;;5071929;28;20589;-78
2022/09/20 01:50:46;;;;;;;10.40;1.60;;;15.10;99.90;;;;;;5072838;28;20705;-78
2022/09/20 01:54:01;;;;;;;2.97;1.10;;;15.10;99.90;;;;;;5055400;28;20571;-78
2022/09/20 01:57:11;;;;;;;4.07;1.20;;;15.10;99.90;;;;;;5011352;28;20600;-78
2022/09/20 02:00:01;;;;;;;3.40;1.60;;;15.10;99.90;;;;;;5072353;28;20629;-78
2022/09/20 02:02:48;;;;;;;8.00;2.63;;;15.20;99.90;;;;;;5071957;28;20614;-78
2022/09/20 02:05:48;;;;;;;3.30;1.20;;;15.20;99.90;;;;;;5072415;28;20567;-78
2022/09/20 02:08:43;;;;;;;4.27;1.50;;;15.20;99.90;;;;;;5073290;28;20658;-78
2022/09/20 02:11:15;;;;;;;6.10;1.60;;;15.20;99.90;;;;;;5071680;28;20616;-78
2022/09/20 02:13:57;;;;;;;5.20;1.43;;;15.20;99.90;;;;;;5071098;28;20579;-78
2022/09/20 02:16:40;;;;;;;3.57;1.10;;;15.20;99.90;;;;;;5072106;28;20593;-78
2022/09/20 02:19:17;;;;;;;2.60;1.57;;;15.20;99.90;;;;;;5072915;28;20977;-78
2022/09/20 02:21:55;;;;;;;3.93;1.83;;;15.20;99.90;;;;;;5074981;28;20609;-77
2022/09/20 02:24:29;;;;;;;4.40;1.43;;;15.20;99.90;;;;;;5074814;28;21004;-77
2022/09/20 02:27:12;;;;;;;3.03;1.50;;;15.20;99.90;;;;;;5075205;28;20570;-77
2022/09/20 02:29:41;;;;;;;4.90;1.67;;;15.20;99.90;;;;;;5076560;28;20938;-77
2022/09/20 02:32:10;;;;;;;4.37;2.00;;;15.20;99.90;;;;;;5077028;28;20601;-77
2022/09/20 02:35:07;;;;;;;6.80;1.60;;;15.20;99.90;;;;;;5089158;28;20586;-77
2022/09/20 02:37:44;;;;;;;2.93;1.50;;;15.20;99.90;;;;;;5078258;28;20954;-77
2022/09/20 02:40:37;;;;;;;4.90;1.50;;;15.20;99.90;;;;;;5078285;28;20623;-77
2022/09/20 02:43:40;;;;;;;5.43;1.93;;;15.20;99.90;;;;;;5079006;28;20649;-77
2022/09/20 02:46:16;;;;;;;5.60;2.10;;;15.20;99.90;;;;;;5077932;28;20574;-77
2022/09/20 02:48:53;;;;;;;4.23;1.20;;;15.20;99.90;;;;;;5077857;28;20656;-77
2022/09/20 02:51:30;;;;;;;4.37;1.43;;;15.20;99.90;;;;;;5078515;28;21156;-77
2022/09/20 02:54:35;;;;;;;3.83;1.40;;;15.20;99.90;;;;;;5075483;28;20681;-78
2022/09/20 02:57:28;;;;;;;5.00;1.40;;;15.10;99.90;;;;;;5072525;28;21024;-77
2022/09/20 03:00:05;;;;;;;2.83;1.30;;;15.10;99.90;;;;;;5072779;28;20686;-77
2022/09/20 03:02:56;;;;;;;9.03;1.50;;;15.10;99.90;;;;;;5072730;28;20598;-78
2022/09/20 03:05:52;;;;;;;2.97;1.33;;;15.10;99.90;;;;;;5072636;28;20563;-77
2022/09/20 03:08:44;;;;;;;2.57;1.67;;;15.10;99.90;;;;;;5072438;28;20578;-78
2022/09/20 03:11:34;;;;;;;2.50;1.43;;;15.10;99.90;;;;;;5074954;28;20613;-78
2022/09/20 03:14:44;;;;;;;4.23;1.47;;;15.00;99.90;;;;;;5072270;28;20586;-77
2022/09/20 03:17:30;;;;;;;5.30;1.33;;;15.00;99.90;;;;;;4993291;28;20592;-78
2022/09/20 03:20:11;;;;;;;4.57;1.47;;;15.00;99.90;;;;;;5048203;28;20723;-78
2022/09/20 03:22:43;;;;;;;2.70;1.53;;;15.00;99.90;;;;;;5071512;28;20668;-77
2022/09/20 03:25:32;;;;;;;3.70;1.10;;;15.00;99.90;;;;;;5071680;28;20886;-77
2022/09/20 03:28:03;;;;;;;2.77;1.63;;;15.00;99.90;;;;;;5032999;28;20980;-78
2022/09/20 03:30:41;;;;;;;5.37;1.30;;;15.00;99.90;;;;;;5070326;28;20929;-77
2022/09/20 03:33:39;;;;;;;4.10;1.70;;;14.90;99.90;;;;;;5071743;28;20984;-77
2022/09/20 03:36:10;;;;;;;4.90;1.33;;;14.90;99.90;;;;;;5042988;28;21167;-77
2022/09/20 03:39:05;;;;;;;4.40;1.50;;;15.00;99.90;;;;;;5071591;28;20664;-77
2022/09/20 03:41:45;;;;;;;6.57;1.67;;;14.90;99.90;;;;;;5071063;28;20662;-77
2022/09/20 03:44:48;;;;;;;4.53;1.53;;;15.00;99.90;;;;;;5071606;28;21180;-77
2022/09/20 03:47:58;;;;;;;3.87;1.30;;;15.00;99.90;;;;;;5071081;28;20886;-77
2022/09/20 03:50:42;;;;;;;3.67;1.40;;;15.00;99.90;;;;;;5073391;28;20574;-77
2022/09/20 03:54:02;;;;;;;2.77;1.10;;;15.00;99.90;;;;;;5071377;28;20554;-78
2022/09/20 03:56:57;;;;;;;5.40;1.77;;;15.00;99.90;;;;;;5037202;28;20582;-78
2022/09/20 03:59:41;;;;;;;6.03;1.00;;;15.00;99.90;;;;;;5071004;28;20667;-77
2022/09/20 04:02:22;;;;;;;4.23;1.93;;;15.00;99.90;;;;;;5071113;28;21000;-77
2022/09/20 04:04:57;;;;;;;5.10;1.20;;;15.00;99.90;;;;;;5071276;28;20562;-76
2022/09/20 04:07:38;;;;;;;3.80;1.20;;;15.00;99.90;;;;;;5071460;28;20553;-76
2022/09/20 04:10:34;;;;;;;4.50;1.60;;;15.00;99.90;;;;;;5070012;28;20566;-76
2022/09/20 04:13:20;;;;;;;3.63;1.00;;;15.00;99.90;;;;;;5070964;28;20566;-76
2022/09/20 04:16:24;;;;;;;3.93;1.43;;;15.00;99.90;;;;;;5069923;28;21216;-78
2022/09/20 04:19:22;;;;;;;7.30;1.40;;;15.00;99.90;;;;;;5071245;28;20633;-77
2022/09/20 04:21:59;;;;;;;4.70;1.30;;;15.00;99.90;;;;;;5026067;28;21012;-77
2022/09/20 04:24:43;;;;;;;4.50;0.97;;;15.00;99.90;;;;;;5071141;28;20570;-77
2022/09/20 04:27:09;;;;;;;4.07;1.07;;;15.00;99.90;;;;;;5075743;28;20567;-78
2022/09/20 04:30:04;;;;;;;5.40;1.20;;;15.00;99.90;;;;;;5070665;28;20640;-77
2022/09/20 04:33:02;;;;;;;3.77;1.13;;;14.90;99.90;;;;;;5070881;28;20584;-77
2022/09/20 04:38:34;;;;;;;4.53;1.03;;;14.90;99.90;;;;;;5073128;28;20626;-77
2022/09/20 04:41:13;;;;;;;3.50;1.30;;;15.00;99.90;;;;;;5056861;28;20696;-77
2022/09/20 04:44:07;;;;;;;6.80;0.90;;;15.00;99.90;;;;;;5074228;28;21002;-77
2022/09/20 04:47:07;;;;;;;4.03;1.43;;;14.90;99.90;;;;;;5073506;28;20590;-76
2022/09/20 04:49:51;;;;;;;3.93;1.00;;;14.90;99.90;;;;;;5073085;28;20916;-77
2022/09/20 04:52:45;;;;;;;7.17;1.10;;;14.90;99.90;;;;;;5073057;28;20693;-76
2022/09/20 04:55:23;;;;;;;3.67;1.10;;;14.90;99.90;;;;;;5074596;28;20563;-77
2022/09/20 04:58:18;;;;;;;2.60;0.90;;;15.00;99.90;;;;;;5074378;28;20610;-78
2022/09/20 05:00:44;;;;;;;4.63;1.30;;;15.00;99.90;;;;;;5074249;28;20602;-77
2022/09/20 05:03:28;;;;;;;4.10;1.40;;;15.00;99.90;;;;;;5045029;28;20554;-78
2022/09/20 05:06:33;;;;;;;4.50;1.17;;;15.00;99.90;;;;;;5074286;28;20555;-77
2022/09/20 05:09:13;;;;;;;5.90;1.30;;;14.90;99.90;;;;;;5072983;28;20574;-78
2022/09/20 05:11:52;;;;;;;8.03;1.13;;;14.90;99.90;;;;;;5072718;28;20618;-78
2022/09/20 05:14:23;;;;;;;5.93;1.40;;;14.90;99.90;;;;;;5072897;28;20570;-77
2022/09/20 05:17:13;;;;;;;8.50;1.60;;;14.90;99.90;;;;;;5084699;22;20608;-83
2022/09/20 05:19:54;;;;;;;2.97;1.30;;;14.90;99.90;;;;;;5038724;28;20629;-83
2022/09/20 05:22:51;;;;;;;3.07;1.20;;;14.90;99.90;;;;;;5056640;28;20973;-83
2022/09/20 05:25:36;;;;;;;6.07;1.60;;;14.90;99.90;;;;;;5063566;28;20582;-83
2022/09/20 05:28:15;;;;;;;5.23;1.40;;;14.90;99.90;;;;;;5039305;28;20598;-83
2022/09/20 05:30:54;;;;;;;3.53;1.40;;;15.00;99.90;;;;;;5055858;28;20562;-84
2022/09/20 05:33:43;;;;;;;2.83;1.58;;;14.90;99.90;;;;;;5073502;28;20565;-82
2022/09/20 05:36:25;;;;;;;4.10;1.70;;;15.00;99.90;;;;;;5039175;28;20655;-83
2022/09/20 05:39:00;;;;;;;4.20;1.80;;;15.00;99.90;;;;;;5073558;28;20618;-83
2022/09/20 05:41:56;;;;;;;7.30;2.27;;;15.00;99.90;;;;;;5072072;28;20566;-81
2022/09/20 05:44:49;;;;;;;5.47;2.20;;;15.00;99.90;;;;;;5065159;28;20591;-82
2022/09/20 05:47:42;;;;;;;4.93;1.63;;;15.00;99.90;;;;;;5054762;28;20988;-82
2022/09/20 05:50:22;;;;;;;6.87;2.23;;;15.00;99.90;;;;;;5024449;28;20587;-84
2022/09/20 05:53:12;;;;;;;5.33;1.83;;;15.00;99.90;;;;;;5073083;28;20622;-83
2022/09/20 05:56:06;;;;;;;6.60;2.30;;;15.00;99.90;;;;;;5073317;28;20660;-83
2022/09/20 05:59:03;;;;;;;9.13;2.73;;;15.00;99.90;;;;;;5055304;28;21270;-83
2022/09/20 06:01:55;;;;;;;4.23;2.30;;;15.10;99.90;;;;;;5078453;28;20667;-81
2022/09/20 06:04:34;;;;;;;6.10;2.87;;;15.10;99.90;;;;;;5036193;28;20586;-82
2022/09/20 06:07:27;;;;;;;3.70;2.40;;;15.10;99.90;;;;;;5054991;28;21199;-82
2022/09/20 06:10:07;;;;;;;3.70;2.47;;;15.20;99.90;;;;;;5072664;28;20574;-83
2022/09/20 06:12:56;;;;;;;6.73;3.40;;;15.20;99.90;;;;;;5072978;28;20570;-83
2022/09/20 06:15:32;;;;;;;8.10;3.40;;;15.30;99.90;;;;;;5072979;28;20574;-83
2022/09/20 06:18:35;;;;;;;5.47;2.90;;;15.30;99.90;;;;;;5054648;28;20637;-81
2022/09/20 06:21:34;;;;;;;5.77;2.93;;;15.30;99.90;;;;;;5072267;28;20562;-82
2022/09/20 06:24:01;;;;;;;7.23;3.00;;;15.40;99.90;;;;;;5054791;28;20582;-82
2022/09/20 06:26:34;;;;;;;5.73;2.80;;;15.50;99.90;;;;;;5072461;28;20567;-83
2022/09/20 06:29:05;;;;;;;7.10;3.83;;;15.50;99.90;;;;;;5055486;28;20559;-83
2022/09/20 06:31:30;;;;;;;6.53;3.70;;;15.60;99.90;;;;;;5072715;28;20578;-83
2022/09/20 06:34:04;;;;;;;4.30;3.00;;;15.70;99.90;;;;;;5072774;28;20575;-84
2022/09/20 06:42:28;;;;;;;7.93;3.50;;;15.80;99.90;;;;;;5072829;28;20562;-84
2022/09/20 06:44:54;;;;;;;6.00;2.83;;;15.90;99.90;;;;;;5054657;28;20566;-84
2022/09/20 06:47:21;;;;;;;4.60;3.37;;;15.90;99.90;;;;;;5072992;28;20728;-84
2022/09/20 06:49:49;;;;;;;6.13;2.87;;;15.90;99.90;;;;;;5072497;28;20586;-83
2022/09/20 06:52:19;;;;;;;4.60;3.17;;;15.90;99.90;;;;;;5072358;28;20665;-84
2022/09/20 06:54:47;;;;;;;7.87;3.30;;;16.00;99.90;;;;;;5072776;28;20624;-84
2022/09/20 06:57:33;;;;;;;6.63;2.87;;;16.10;99.90;;;;;;5055140;28;20603;-84
2022/09/20 06:59:59;;;;;;;5.87;2.87;;;16.20;99.90;;;;;;5071989;28;20566;-84
2022/09/20 07:02:26;;;;;;;6.90;4.27;;;16.30;99.90;;;;;;5072940;28;20562;-84
2022/09/20 07:04:58;;;;;;;4.27;2.80;;;16.40;99.90;;;;;;5072727;28;21154;-83
2022/09/20 07:07:24;;;;;;;4.97;2.60;;;16.50;99.90;;;;;;5072622;28;20590;-83
2022/09/20 07:09:50;;;;;;;8.90;4.20;;;16.60;99.90;;;;;;5072668;28;20555;-84
2022/09/20 07:12:16;;;;;;;5.07;2.87;;;16.70;99.90;;;;;;5072530;28;20895;-84
2022/09/20 07:14:43;;;;;;;2.90;1.93;;;16.90;99.90;;;;;;5059343;28;20172;-84
2022/09/20 07:17:08;;;;;;;4.57;2.50;;;17.10;99.90;;;;;;5074169;28;20620;-84
2022/09/20 07:19:35;;;;;;;5.00;2.10;;;17.30;99.90;;;;;;5073061;28;20965;-84
2022/09/20 07:22:01;;;;;;;4.17;1.93;;;17.60;99.90;;;;;;5073608;28;20168;-84
2022/09/20 07:24:29;;;;;;;6.60;1.50;;;18.00;99.90;;;;;;5073738;28;20574;-84
2022/09/20 07:27:00;;;;;;;8.87;2.20;;;18.40;99.90;;;;;;5075091;28;20594;-84
2022/09/20 07:29:27;;;;;;;4.40;2.17;;;18.80;99.90;;;;;;5075319;28;20585;-84
2022/09/20 07:31:54;;;;;;;3.33;1.70;;;19.10;99.90;;;;;;5059325;28;21137;-84
2022/09/20 07:34:20;;;;;;;5.83;1.60;;;19.50;99.90;;;;;;5044036;28;20571;-84
2022/09/20 07:36:46;;;;;;;5.73;1.83;;;20.10;99.90;;;;;;5080536;28;21061;-83
2022/09/20 07:39:12;;;;;;;2.90;1.27;;;20.90;99.90;;;;;;5082739;28;20575;-83
2022/09/20 07:41:38;;;;;;;5.23;1.67;;;21.80;99.90;;;;;;5083408;28;20563;-83
2022/09/20 07:46:58;;;;;;;4.53;1.30;;;23.60;99.90;;;;;;5062453;28;20184;-83
2022/09/20 07:49:26;;;;;;;3.83;1.50;;;24.60;99.90;;;;;;5060353;28;20683;-83
2022/09/20 07:51:53;;;;;;;3.30;1.40;;;25.30;99.90;;;;;;5079532;28;20617;-83
2022/09/20 07:54:19;;;;;;;3.93;1.30;;;25.60;99.90;;;;;;5079309;28;20579;-83
2022/09/20 07:56:48;;;;;;;3.43;1.30;;;26.00;99.90;;;;;;5077409;28;20606;-83
2022/09/20 07:59:15;;;;;;;4.80;1.67;;;26.40;99.90;;;;;;5079862;28;20618;-83
2022/09/20 08:01:41;;;;;;;5.57;1.50;;;26.60;99.90;;;;;;5078467;28;20579;-83
2022/09/20 08:04:08;;;;;;;3.90;1.20;;;26.60;99.90;;;;;;5082815;28;20570;-83
2022/09/20 08:06:39;;;;;;;2.07;0.97;;;26.40;99.90;;;;;;5079053;28;20583;-83
2022/09/20 08:09:06;;;;;;;3.03;0.87;;;26.10;99.90;;;;;;5057832;28;20566;-83
2022/09/20 08:11:34;;;;;;;3.30;0.90;;;25.90;99.90;;;;;;5077737;28;20585;-83
2022/09/20 08:14:02;;;;;;;3.40;1.17;;;25.50;99.90;;;;;;5079564;28;20723;-83
2022/09/20 08:16:30;;;;;;;2.40;1.00;;;25.10;99.90;;;;;;5078831;28;20965;-83
2022/09/20 08:18:58;;;;;;;4.13;0.90;;;24.60;99.90;;;;;;5078077;28;20955;-83
2022/09/20 08:21:34;;;;;;;3.10;0.90;;;24.40;99.90;;;;;;5062161;28;20598;-83
2022/09/20 08:24:00;;;;;;;5.07;1.40;;;24.70;99.90;;;;;;5081242;28;20624;-83
2022/09/20 08:26:27;;;;;;;2.80;1.07;;;25.10;99.90;;;;;;5079983;28;20563;-83
2022/09/20 08:28:55;;;;;;;6.30;1.17;;;25.50;99.90;;;;;;5070952;28;21073;-84
2022/09/20 08:31:35;;;;;;;3.50;1.10;;;25.70;99.90;;;;;;5073372;28;20606;-83
2022/09/20 08:34:03;;;;;;;3.40;1.20;;;26.20;99.90;;;;;;5079338;28;20586;-82
2022/09/20 08:36:40;;;;;;;3.20;1.00;;;27.10;99.90;;;;;;5063050;28;20588;-84
2022/09/20 08:39:06;;;;;;;2.83;1.03;;;27.70;99.20;;;;;;5062626;28;20742;-83
2022/09/20 08:41:34;;;;;;;5.20;1.20;;;28.40;99.10;;;;;;5059217;28;20712;-84
2022/09/20 08:44:24;;;;;;;2.50;0.70;;;28.80;97.20;;;;;;5059042;28;20933;-83
2022/09/20 08:47:01;;;;;;;1.90;0.70;;;29.10;95.80;;;;;;5040504;28;20606;-83
2022/09/20 08:49:29;;;;;;;3.07;0.80;;;29.20;92.10;;;;;;5057698;28;20555;-84
2022/09/20 08:51:57;;;;;;;2.97;1.00;;;29.50;93.60;;;;;;5057187;28;20566;-82
2022/09/20 08:54:28;;;;;;;3.60;0.80;;;29.80;92.60;;;;;;5023063;28;20575;-83
2022/09/20 08:56:54;;;;;;;4.53;1.10;;;30.00;91.50;;;;;;5023242;28;20706;-83
2022/09/20 08:59:21;;;;;;;6.60;1.00;;;30.20;90.20;;;;;;5057678;28;20631;-84
2022/09/20 09:01:50;;;;;;;3.93;1.33;;;30.00;87.10;;;;;;5059870;28;20560;-83
2022/09/20 09:04:22;;;;;;;6.43;1.10;;;29.80;84.10;;;;;;5058649;28;20564;-83
2022/09/20 09:06:51;;;;;;;3.03;0.97;;;29.60;80.70;;;;;;5063331;28;20586;-84
2022/09/20 09:09:21;;;;;;;3.47;0.80;;;29.30;82.20;;;;;;5059894;28;20572;-84
2022/09/20 09:11:48;;;;;;;2.00;0.70;;;28.90;81.40;;;;;;5060063;28;20604;-83
2022/09/20 09:17:15;;;;;;;5.27;1.37;;;28.10;78.50;;;;;;5060091;28;20607;-83
2022/09/20 09:20:01;;;;;;;5.53;1.70;;;27.50;78.40;;;;;;5059633;28;20567;-82
2022/09/20 09:22:39;;;;;;;4.30;1.30;;;26.90;77.50;;;;;;5023893;28;20674;-83
2022/09/20 09:25:22;;;;;;;4.63;0.90;;;26.40;78.30;;;;;;5041477;28;20730;-84
2022/09/20 09:27:59;;;;;;;2.73;0.70;;;26.00;78.70;;;;;;5060178;28;20599;-83
2022/09/20 09:30:30;;;;;;;3.53;1.10;;;25.70;79.20;;;;;;5064744;28;20607;-84
2022/09/20 09:33:14;;;;;;;2.50;0.70;;;25.50;79.40;;;;;;5041837;28;20579;-84
2022/09/20 09:35:41;;;;;;;2.40;0.73;;;25.40;80.70;;;;;;5058540;28;20725;-85
2022/09/20 09:38:23;;;;;;;3.63;0.93;;;25.50;82.50;;;;;;5057654;28;20631;-83
2022/09/20 09:41:00;;;;;;;4.23;1.00;;;25.60;81.60;;;;;;5049490;28;20570;-84
2022/09/20 09:43:34;;;;;;;3.77;1.00;;;25.90;83.50;;;;;;5070351;28;20574;-83
2022/09/20 09:46:20;;;;;;;2.17;0.80;;;25.90;81.30;;;;;;5051790;28;20583;-84
2022/09/20 09:48:48;;;;;;;7.50;1.37;;;25.70;79.90;;;;;;5050065;28;20574;-83
2022/09/20 09:51:19;;;;;;;4.13;1.00;;;25.40;79.00;;;;;;5049351;28;20598;-83
2022/09/20 09:53:50;;;;;;;6.30;0.83;;;24.90;78.50;;;;;;5067741;28;20564;-84
2022/09/20 09:56:49;;;;;;;3.53;0.80;;;24.40;77.20;;;;;;5047314;28;20586;-83
2022/09/20 09:59:41;;;;;;;1.90;0.70;;;23.90;76.20;;;;;;5064081;28;20623;-84
2022/09/20 10:02:18;;;;;;;5.00;0.70;;;23.40;76.10;;;;;;5065376;28;20567;-83
2022/09/20 10:04:46;;;;;;;4.33;1.00;;;22.90;76.70;;;;;;5030746;28;20579;-83
2022/09/20 10:07:45;;;;;;;3.93;1.40;;;22.50;76.80;;;;;;5063893;28;20606;-83
2022/09/20 10:10:34;;;;;;;1.40;0.50;;;22.00;77.30;;;;;;5062927;28;20572;-84
2022/09/20 10:13:34;;;;;;;2.90;1.00;;;21.60;77.40;;;;;;5059022;28;20634;-83
2022/09/20 10:16:10;;;;;;;1.73;0.70;;;21.20;78.00;;;;;;5020352;28;20575;-83
2022/09/20 10:18:58;;;;;;;3.63;0.70;;;20.80;78.50;;;;;;5037121;28;20633;-84
2022/09/20 10:21:42;;;;;;;2.27;0.80;;;20.50;79.70;;;;;;5059387;28;20906;-84
2022/09/20 10:24:16;;;;;;;2.87;0.70;;;20.20;80.30;;;;;;5035857;28;20567;-84
2022/09/20 10:27:09;;;;;;;3.77;0.60;;;20.00;80.90;;;;;;5055556;28;20599;-84
2022/09/20 10:30:08;;;;;;;2.33;0.70;;;19.80;81.30;;;;;;5037775;28;20992;-83
2022/09/20 10:32:54;;;;;;;3.20;0.70;;;19.70;83.00;;;;;;5056604;28;20566;-83
2022/09/20 10:35:51;;;;;;;2.53;0.80;;;19.70;84.60;;;;;;5056231;28;20920;-83
2022/09/20 10:38:30;;;;;;;3.97;1.00;;;19.80;85.40;;;;;;5043636;28;21210;-84
2022/09/20 10:43:51;;;;;;;2.20;0.67;;;20.20;85.60;;;;;;5038427;28;21115;-84
2022/09/20 10:46:40;;;;;;;1.60;0.50;;;20.30;85.10;;;;;;5056451;28;20571;-84
2022/09/20 10:49:41;;;;;;;3.33;0.60;;;20.40;84.20;;;;;;5054272;28;20572;-84
2022/09/20 10:52:18;;;;;;;4.07;0.77;;;20.50;84.60;;;;;;5053750;28;20571;-83
2022/09/20 10:54:47;;;;;;;3.30;1.00;;;20.70;84.60;;;;;;5054427;28;20654;-83
2022/09/20 10:57:45;;;;;;;3.43;0.97;;;20.70;85.00;;;;;;5041668;28;20763;-84
2022/09/20 11:01:00;;;;;;;3.00;0.60;;;20.80;84.50;;;;;;4986483;28;20604;-84
2022/09/20 11:03:51;;;;;;;5.00;0.60;;;20.80;83.90;;;;;;5033188;28;20586;-82
2022/09/20 11:06:54;;;;;;;5.40;0.70;;;20.80;82.50;;;;;;5037817;28;20930;-83
2022/09/20 11:09:30;;;;;;;3.60;0.70;;;20.70;82.20;;;;;;5054898;28;20591;-83
2022/09/20 11:12:10;;;;;;;2.60;0.70;;;20.60;81.80;;;;;;5054645;28;20595;-83
2022/09/20 11:14:53;;;;;;;5.17;1.30;;;20.40;81.50;;;;;;5055560;28;20563;-83
2022/09/20 11:17:25;;;;;;;4.17;1.00;;;20.30;82.60;;;;;;5037500;28;20722;-83
2022/09/20 11:20:17;;;;;;;2.77;0.80;;;20.20;83.00;;;;;;5052450;28;20630;-77
2022/09/20 11:22:51;;;;;;;3.33;0.77;;;20.00;83.40;;;;;;5051568;28;20582;-78
2022/09/20 11:25:39;;;;;;;2.13;0.70;;;19.90;83.70;;;;;;5050120;28;20564;-78
2022/09/20 11:28:19;;;;;;;4.43;0.90;;;19.70;83.90;;;;;;5051441;28;20690;-77
2022/09/20 11:30:59;;;;;;;3.97;1.43;;;19.60;83.60;;;;;;5051288;28;20558;-77
2022/09/20 11:33:29;;;;;;;3.37;0.70;;;19.40;85.50;;;;;;5034052;28;20558;-77
2022/09/20 11:35:59;;;;;;;2.20;0.80;;;19.30;85.30;;;;;;5055172;28;20571;-76
2022/09/20 11:38:24;;;;;;;2.60;0.60;;;19.20;86.20;;;;;;5033267;28;20642;-78
2022/09/20 11:41:15;;;;;;;2.93;0.70;;;19.00;87.00;;;;;;5033344;28;20568;-78
2022/09/20 11:43:44;;;;;;;2.17;0.60;;;18.90;88.50;;;;;;5051400;28;20169;-77
2022/09/20 11:46:42;;;;;;;3.73;0.90;;;18.70;88.80;;;;;;5053401;28;20559;-77
2022/09/20 11:49:19;;;;;;;3.20;0.80;;;18.60;90.00;;;;;;5027100;28;20705;-77
2022/09/20 11:52:28;;;;;;;2.70;0.90;;;18.40;90.30;;;;;;5055510;28;20575;-77
2022/09/20 11:55:21;;;;;;;1.80;0.60;;;18.40;90.70;;;;;;5042674;28;21138;-77
2022/09/20 11:58:06;;;;;;;2.83;0.87;;;18.30;91.50;;;;;;5037255;28;20634;-77
2022/09/20 12:00:40;;;;;;;4.23;1.20;;;18.20;92.20;;;;;;5055080;28;20572;-77
2022/09/20 12:03:20;;;;;;;2.33;0.93;;;18.20;91.90;;;;;;5055227;28;20578;-77
2022/09/20 12:05:55;;;;;;;3.10;1.30;;;18.10;92.30;;;;;;5021178;28;21301;-77
2022/09/20 12:08:39;;;;;;;2.33;0.87;;;18.10;92.80;;;;;;5062090;28;20666;-75
2022/09/20 12:11:09;;;;;;;2.20;0.70;;;18.20;93.60;;;;;;5055012;28;20609;-84
2022/09/20 12:13:38;;;;;;;2.67;1.00;;;18.30;93.60;;;;;;5037426;28;20571;-84
2022/09/20 12:16:41;;;;;;;2.43;0.70;;;18.30;93.80;;;;;;5037711;28;20579;-83
2022/09/20 12:19:32;;;;;;;2.23;0.60;;;18.30;94.20;;;;;;5055338;28;20614;-83
2022/09/20 12:21:57;;;;;;;3.20;0.70;;;18.40;94.30;;;;;;5037097;28;20560;-83
2022/09/20 12:24:32;;;;;;;2.20;0.70;;;18.50;94.20;;;;;;5055279;28;20901;-83
2022/09/20 12:27:18;;;;;;;2.13;0.70;;;18.60;94.30;;;;;;5055238;28;20188;-83
2022/09/20 12:30:19;;;;;;;1.80;0.60;;;18.60;94.40;;;;;;5057888;28;20559;-82
2022/09/20 12:32:50;;;;;;;1.90;0.63;;;18.70;94.70;;;;;;5055220;28;20575;-82
2022/09/20 12:35:34;;;;;;;1.97;0.53;;;18.90;95.50;;;;;;5055330;28;20660;-83
2022/09/20 12:38:19;;;;;;;1.77;0.80;;;19.10;95.60;;;;;;5055049;28;20692;-83
2022/09/20 12:41:07;;;;;;;2.17;0.60;;;19.40;95.80;;;;;;5054943;28;20624;-84
2022/09/20 12:43:36;;;;;;;2.83;0.60;;;19.60;95.70;;;;;;5045728;28;20575;-83
2022/09/20 12:46:02;;;;;;;2.80;0.50;;;19.90;95.00;;;;;;5056060;28;20899;-84
2022/09/20 12:48:34;;;;;;;2.23;0.50;;;20.00;94.60;;;;;;5055814;28;20926;-84
2022/09/20 12:54:13;;;;;;;2.30;0.50;;;20.20;92.20;;;;;;5057935;28;20898;-83
2022/09/20 12:56:40;;;;;;;2.70;0.50;;;20.60;94.20;;;;;;5057286;28;20646;-83
2022/09/20 12:59:21;;;;;;;2.27;0.50;;;20.80;94.00;;;;;;5056789;28;20641;-85
2022/09/20 13:01:55;;;;;;;6.83;0.70;;;20.90;92.40;;;;;;5026176;28;20571;-83
2022/09/20 13:04:50;;;;;;;2.90;0.50;;;21.20;93.00;;;;;;5056902;28;20571;-84
2022/09/20 13:07:35;;;;;;;1.40;0.50;;;21.30;91.90;;;;;;5043584;28;20197;-83
2022/09/20 13:10:13;;;;;;;1.57;0.50;;;21.40;91.60;;;;;;5024204;28;21203;-84
2022/09/20 13:12:40;;;;;;;1.30;0.50;;;21.40;91.20;;;;;;5057868;28;20563;-83
2022/09/20 13:15:14;;;;;;;3.20;1.40;;;21.40;90.40;;;;;;5057247;28;20560;-84
2022/09/20 13:17:42;;;;;;;1.87;0.50;;;21.20;89.90;;;;;;5056140;28;20614;-84
2022/09/20 13:20:18;;;;;;;2.20;0.70;;;21.20;89.80;;;;;;5056651;28;20563;-84
2022/09/20 13:22:44;;;;;;;2.63;0.70;;;21.00;90.00;;;;;;5057119;28;20571;-84
2022/09/20 13:25:14;;;;;;;1.60;0.60;;;20.80;88.90;;;;;;5038842;28;21123;-84
2022/09/20 13:28:12;;;;;;;5.57;0.70;;;20.60;89.10;;;;;;5056352;28;20595;-84
2022/09/20 13:30:39;;;;;;;1.83;0.70;;;20.40;89.70;;;;;;5052823;28;21049;-83
2022/09/20 13:33:19;;;;;;;2.03;0.80;;;20.30;90.00;;;;;;5021114;28;20564;-82
2022/09/20 13:35:48;;;;;;;3.03;0.70;;;20.30;90.00;;;;;;5038874;28;20621;-83
2022/09/20 13:38:24;;;;;;;3.40;0.70;;;20.20;90.20;;;;;;5056382;28;20659;-83
2022/09/20 13:40:51;;;;;;;3.10;0.90;;;20.10;90.40;;;;;;5055945;28;20567;-83
2022/09/20 13:43:36;;;;;;;1.80;0.70;;;20.10;90.60;;;;;;5056653;28;20578;-84
2022/09/20 13:46:10;;;;;;;3.50;1.87;;;20.10;90.70;;;;;;5042785;28;20667;-84
2022/09/20 13:48:36;;;;;;;2.80;1.70;;;20.00;91.10;;;;;;5055347;28;21190;-84
2022/09/20 13:51:02;;;;;;;4.47;1.50;;;20.00;90.80;;;;;;5055399;28;20568;-84
2022/09/20 13:53:31;;;;;;;3.87;1.63;;;20.00;90.90;;;;;;5038262;28;20663;-84
2022/09/20 13:55:58;;;;;;;3.70;1.70;;;20.00;91.00;;;;;;5056373;28;20575;-84
2022/09/20 13:58:32;;;;;;;4.03;2.60;;;19.90;90.70;;;;;;5056334;28;20628;-83
2022/09/20 14:01:02;;;;;;;2.63;1.10;;;19.80;90.60;;;;;;5039153;28;20578;-84
2022/09/20 14:03:30;;;;;;;2.67;1.40;;;19.80;90.70;;;;;;5056903;28;20938;-84
2022/09/20 14:06:00;;;;;;;3.27;1.30;;;19.80;90.90;;;;;;5038730;28;20617;-84
2022/09/20 14:08:47;;;;;;;3.13;1.03;;;19.70;91.00;;;;;;5054863;28;20607;-83
2022/09/20 14:11:22;;;;;;;2.77;1.10;;;19.70;91.50;;;;;;5055169;28;20665;-84